Time;durP1;ratioP1;P1;durP2;ratioP2;P2;SDS_P1;SDS_P2;PMS_P1;PMS_P2;Temp;Humidity;BMP_temperature;BMP_pressure;BME280_temperature;BME280_humidity;BME280_pressure;Samples;Min_cycle;Max_cycle;Signal;HPM_P1;HPM_P2
2022/09/17 00:01:27;;;;;;;3.40;2.25;;;;;;;12.42;86.21;99306.32;1781246;79;21041;-82
2022/09/17 00:03:59;;;;;;;7.47;2.98;;;;;;;12.42;86.40;99316.20;1776880;79;20974;-82
2022/09/17 00:06:25;;;;;;;3.52;2.30;;;;;;;12.39;86.64;99305.95;1778488;79;20965;-81
2022/09/17 00:08:54;;;;;;;3.30;2.33;;;;;;;12.33;86.76;99306.86;1777571;79;21001;-81
2022/09/17 00:11:26;;;;;;;2.62;2.42;;;;;;;12.27;87.03;99306.71;1778856;79;20974;-81
2022/09/17 00:13:57;;;;;;;3.15;2.98;;;;;;;12.21;87.41;99294.26;1775686;79;20985;-82
2022/09/17 00:16:35;;;;;;;4.00;3.65;;;;;;;12.17;87.75;99283.73;1770803;79;21018;-81
2022/09/17 00:19:04;;;;;;;5.12;3.10;;;;;;;11.92;88.27;99246.94;1782985;79;20997;-82
2022/09/17 00:21:31;;;;;;;3.50;3.20;;;;;;;12.14;88.70;99282.03;1781866;80;21024;-81
2022/09/17 00:24:02;;;;;;;4.42;3.80;;;;;;;12.16;88.93;99282.09;1766695;79;21493;-81
2022/09/17 00:26:31;;;;;;;7.87;4.67;;;;;;;12.17;89.15;99270.37;1782018;79;21101;-82
2022/09/17 00:28:58;;;;;;;5.22;4.75;;;;;;;12.17;89.21;99269.56;1780256;79;20954;-82
2022/09/17 00:31:26;;;;;;;4.37;3.92;;;;;;;12.15;89.53;99267.11;1782036;79;20997;-81
2022/09/17 00:33:53;;;;;;;5.15;4.50;;;;;;;12.16;89.94;99271.41;1777155;78;21432;-82
2022/09/17 00:36:21;;;;;;;6.03;5.40;;;;;;;12.18;90.26;99281.34;1762002;79;20968;-81
2022/09/17 00:38:53;;;;;;;11.78;7.83;;;;;;;12.21;90.58;99277.42;1791252;79;21111;-82
2022/09/17 00:41:21;;;;;;;8.70;7.72;;;;;;;12.22;91.37;99278.54;1787165;78;20944;-82
2022/09/17 00:43:59;;;;;;;8.58;7.72;;;;;;;12.22;91.55;99275.87;1787430;79;21451;-82
2022/09/17 00:46:42;;;;;;;9.58;8.03;;;;;;;12.22;91.87;99279.03;1786387;79;21460;-81
2022/09/17 00:49:19;;;;;;;9.93;8.88;;;;;;;12.24;92.14;99287.14;1790800;79;21083;-81
2022/09/17 00:52:02;;;;;;;10.05;8.95;;;;;;;12.24;92.61;99292.48;1751226;80;21045;-81
2022/09/17 00:54:29;;;;;;;10.43;8.05;;;;;;;12.25;92.39;99287.42;1793175;79;20976;-82
2022/09/17 00:57:02;;;;;;;8.18;7.50;;;;;;;12.26;92.30;99305.59;1792733;79;20940;-82
2022/09/17 00:59:28;;;;;;;9.20;7.17;;;;;;;12.28;92.13;99307.52;1792153;79;20971;-84
2022/09/17 01:01:54;;;;;;;8.18;7.37;;;;;;;12.29;91.86;99293.13;1753199;81;21021;-82
2022/09/17 01:04:25;;;;;;;9.03;8.13;;;;;;;12.28;91.70;99288.81;1753560;80;21006;-82
2022/09/17 01:07:20;;;;;;;8.65;7.75;;;;;;;12.27;91.70;99281.86;1784674;80;21006;-82
2022/09/17 01:10:10;;;;;;;8.48;7.33;;;;;;;12.24;91.83;99280.46;1761705;79;21087;-82
2022/09/17 01:12:53;;;;;;;9.25;8.25;;;;;;;12.23;92.20;99305.53;1759150;80;21094;-82
2022/09/17 01:15:48;;;;;;;8.10;7.30;;;;;;;12.21;92.57;99308.95;1741660;82;21066;-82
2022/09/17 01:18:24;;;;;;;8.10;7.30;;;;;;;12.24;92.65;99312.52;1752297;80;21127;-81
2022/09/17 01:21:16;;;;;;;7.92;7.12;;;;;;;12.24;92.74;99307.68;1761555;79;20995;-81
2022/09/17 01:23:57;;;;;;;7.50;6.55;;;;;;;12.26;92.86;99293.08;1752694;80;21098;-82
2022/09/17 01:26:58;;;;;;;8.15;7.35;;;;;;;12.26;92.74;99297.08;1760183;80;21297;-82
2022/09/17 01:29:33;;;;;;;12.45;7.10;;;;;;;12.24;92.57;99304.51;1736918;80;21143;-82
2022/09/17 01:32:42;;;;;;;9.38;8.03;;;;;;;12.24;92.83;99315.70;1759940;80;21004;-82
2022/09/17 01:35:37;;;;;;;11.65;7.92;;;;;;;12.24;93.03;99317.87;1756605;80;21057;-82
2022/09/17 01:38:26;;;;;;;7.47;6.80;;;;;;;12.27;93.35;99321.94;1757392;80;21076;-82
2022/09/17 01:41:10;;;;;;;8.43;7.62;;;;;;;12.27;93.32;99316.59;1728095;81;21094;-83
2022/09/17 01:43:48;;;;;;;8.95;7.53;;;;;;;12.30;93.34;99308.63;1746985;81;21125;-81
2022/09/17 01:46:25;;;;;;;8.00;7.28;;;;;;;12.31;93.25;99311.62;1776779;79;21305;-83
2022/09/17 01:49:01;;;;;;;8.45;7.65;;;;;;;12.30;93.31;99318.83;1777274;79;21016;-80
2022/09/17 01:51:38;;;;;;;7.80;6.97;;;;;;;12.31;93.56;99326.31;1744100;81;21036;-82
2022/09/17 01:54:30;;;;;;;8.60;6.80;;;;;;;12.29;93.60;99322.52;1780433;79;21040;-82
2022/09/17 01:57:02;;;;;;;8.83;7.22;;;;;;;12.29;93.59;99329.73;1761343;79;21104;-82
2022/09/17 01:59:54;;;;;;;8.33;7.47;;;;;;;12.29;93.84;99329.73;1783244;79;22180;-83
2022/09/17 02:02:28;;;;;;;8.48;7.58;;;;;;;12.31;93.89;99330.32;1790803;78;21063;-82
2022/09/17 02:05:06;;;;;;;8.83;8.13;;;;;;;12.31;94.10;99326.31;1777435;79;20949;-82
2022/09/17 02:07:38;;;;;;;9.80;7.30;;;;;;;12.31;94.29;99328.45;1749021;81;21028;-82
2022/09/17 02:10:10;;;;;;;8.35;7.20;;;;;;;12.32;94.49;99323.92;1755307;80;21103;-83
2022/09/17 02:12:45;;;;;;;7.95;7.03;;;;;;;12.34;94.84;99311.15;1761581;81;21029;-82
2022/09/17 02:15:17;;;;;;;12.50;8.58;;;;;;;12.36;95.16;99307.76;1762524;80;21050;-82
2022/09/17 02:17:48;;;;;;;8.43;7.62;;;;;;;12.39;95.46;99313.97;1736072;81;20991;-82
2022/09/17 02:20:17;;;;;;;9.68;8.30;;;;;;;12.42;95.31;99313.00;1745329;81;21033;-81
2022/09/17 02:22:59;;;;;;;7.80;7.10;;;;;;;12.48;95.15;99309.95;1758120;80;21560;-81
2022/09/17 02:25:39;;;;;;;14.55;9.48;;;;;;;12.55;95.14;99317.36;1758769;79;21083;-82
2022/09/17 02:28:24;;;;;;;7.75;6.95;;;;;;;12.59;95.04;99319.88;1756513;80;21012;-82
2022/09/17 02:30:53;;;;;;;7.58;6.90;;;;;;;12.63;94.74;99322.91;1751188;80;21068;-82
2022/09/17 02:33:20;;;;;;;9.28;8.48;;;;;;;12.65;94.30;99322.97;1717520;81;21560;-83
2022/09/17 02:35:48;;;;;;;8.70;7.40;;;;;;;12.67;93.96;99325.42;1725096;81;21595;-84
2022/09/17 02:38:30;;;;;;;8.90;8.00;;;;;;;12.69;93.79;99327.34;1737850;82;21082;-82
2022/09/17 02:41:17;;;;;;;8.90;7.03;;;;;;;12.70;93.86;99320.97;1720649;81;20985;-81
2022/09/17 02:44:19;;;;;;;6.90;6.37;;;;;;;12.70;94.03;99316.16;1735907;81;21026;-83
2022/09/17 02:47:08;;;;;;;9.03;7.72;;;;;;;12.71;94.16;99323.12;1747900;81;21076;-82
2022/09/17 02:49:55;;;;;;;8.15;7.45;;;;;;;12.71;94.36;99322.58;1741662;80;21061;-82
2022/09/17 02:53:08;;;;;;;8.80;7.78;;;;;;;12.73;94.47;99321.03;1758769;80;21033;-83
2022/09/17 02:55:43;;;;;;;9.53;7.55;;;;;;;12.72;94.61;99312.20;1693237;83;21061;-82
2022/09/17 02:58:40;;;;;;;7.87;7.25;;;;;;;12.68;95.08;99308.85;1699470;83;21006;-81
2022/09/17 03:01:14;;;;;;;8.70;7.95;;;;;;;12.70;95.35;99302.78;1699088;82;21029;-82
2022/09/17 03:03:43;;;;;;;9.43;7.80;;;;;;;12.72;95.38;99298.02;1728540;81;21063;-82
2022/09/17 03:06:09;;;;;;;9.20;7.67;;;;;;;12.75;95.28;99289.03;1758387;79;21066;-82
2022/09/17 03:08:40;;;;;;;9.03;7.97;;;;;;;12.79;95.07;99292.03;1781150;80;21001;-83
2022/09/17 03:11:08;;;;;;;7.75;7.05;;;;;;;12.83;94.90;99290.03;1777709;79;21540;-82
2022/09/17 03:13:35;;;;;;;9.50;8.58;;;;;;;12.86;94.61;99296.77;1780320;79;20989;-83
2022/09/17 03:16:02;;;;;;;11.00;9.93;;;;;;;12.91;94.28;99301.45;1790499;79;21060;-82
2022/09/17 03:18:29;;;;;;;10.45;9.35;;;;;;;12.92;94.26;99301.22;1770071;79;21041;-81
2022/09/17 03:20:59;;;;;;;12.30;8.13;;;;;;;12.95;94.15;99304.76;1766781;80;20956;-82
2022/09/17 03:23:26;;;;;;;9.63;8.68;;;;;;;12.99;94.05;99300.58;1781141;80;21001;-82
2022/09/17 03:25:54;;;;;;;7.83;7.12;;;;;;;13.01;93.92;99311.86;1768992;80;21036;-82
2022/09/17 03:28:21;;;;;;;8.85;8.05;;;;;;;13.01;93.63;99311.05;1775877;79;21020;-82
2022/09/17 03:30:48;;;;;;;8.48;7.37;;;;;;;13.00;93.65;99315.59;1787199;80;21034;-83
2022/09/17 03:33:15;;;;;;;9.38;8.58;;;;;;;13.00;93.70;99303.55;1783453;79;21076;-81
2022/09/17 03:35:44;;;;;;;10.30;8.73;;;;;;;13.01;93.80;99302.50;1781327;79;21087;-82
2022/09/17 03:38:12;;;;;;;10.40;9.40;;;;;;;13.03;93.96;99304.45;1779951;79;21053;-83
2022/09/17 03:40:39;;;;;;;10.15;9.18;;;;;;;13.06;94.08;99300.48;1776631;79;21108;-82
2022/09/17 03:43:07;;;;;;;9.25;8.35;;;;;;;13.10;94.37;99313.69;1764195;80;21100;-82
2022/09/17 03:45:34;;;;;;;7.60;6.95;;;;;;;13.12;94.37;99322.83;1792217;79;21029;-81
2022/09/17 03:48:01;;;;;;;8.03;7.20;;;;;;;13.13;94.21;99317.75;1790773;79;21013;-82
2022/09/17 03:50:27;;;;;;;7.85;7.22;;;;;;;13.13;94.12;99322.61;1796552;79;21045;-83
2022/09/17 03:52:54;;;;;;;11.48;7.30;;;;;;;13.14;94.00;99319.40;1787953;79;21059;-82
2022/09/17 03:55:20;;;;;;;8.90;6.47;;;;;;;13.16;94.21;99319.98;1783962;79;21082;-82
2022/09/17 03:57:50;;;;;;;8.55;7.75;;;;;;;13.17;94.15;99325.11;1788339;79;21020;-81
2022/09/17 04:00:18;;;;;;;8.35;7.10;;;;;;;13.17;94.14;99325.64;1790513;79;21065;-82
2022/09/17 04:02:45;;;;;;;10.00;7.42;;;;;;;13.19;93.93;99328.90;1787042;79;21143;-82
2022/09/17 04:05:11;;;;;;;8.85;7.05;;;;;;;13.19;93.84;99314.19;1781813;80;20980;-81
2022/09/17 04:07:40;;;;;;;7.97;6.90;;;;;;;13.21;93.79;99310.75;1804383;79;20961;-82
2022/09/17 04:10:07;;;;;;;7.87;7.12;;;;;;;13.24;93.70;99315.63;1768466;80;21051;-83
2022/09/17 04:12:35;;;;;;;7.17;6.58;;;;;;;13.26;93.49;99332.30;1772154;80;21072;-82
2022/09/17 04:15:04;;;;;;;6.47;5.92;;;;;;;13.29;93.47;99333.14;1760934;80;21023;-82
2022/09/17 04:17:30;;;;;;;7.05;5.85;;;;;;;13.30;93.64;99342.85;1761883;80;21463;-83
2022/09/17 04:19:58;;;;;;;7.05;6.35;;;;;;;13.31;93.97;99339.11;1785894;80;20994;-82
2022/09/17 04:22:27;;;;;;;6.92;6.35;;;;;;;13.35;94.06;99342.14;1766398;80;21056;-82
2022/09/17 04:24:53;;;;;;;7.20;6.45;;;;;;;13.37;93.97;99343.56;1770113;80;21053;-82
2022/09/17 04:27:20;;;;;;;7.70;6.87;;;;;;;13.41;94.18;99348.75;1779718;80;21549;-83
2022/09/17 04:29:46;;;;;;;6.65;6.10;;;;;;;13.44;94.16;99354.95;1769796;80;22148;-84
2022/09/17 04:32:12;;;;;;;7.87;6.83;;;;;;;13.49;94.21;99352.13;1772996;80;21525;-84
2022/09/17 04:34:38;;;;;;;7.10;6.50;;;;;;;13.53;94.20;99355.97;1712391;82;21023;-84
2022/09/17 04:37:04;;;;;;;11.33;7.92;;;;;;;13.56;94.09;99356.33;1747352;80;20970;-84
2022/09/17 04:39:30;;;;;;;;;;;;;;;13.60;93.86;99358.02;1767783;81;20982;-84
2022/09/17 04:41:58;;;;;;;7.37;6.72;;;;;;;13.63;93.64;99366.91;1762965;80;20107;-84
2022/09/17 04:44:24;;;;;;;7.30;6.70;;;;;;;13.60;93.44;99368.20;1760515;78;20938;-82
2022/09/17 04:46:50;;;;;;;8.28;7.47;;;;;;;13.60;92.56;99360.70;1782157;78;21029;-82
2022/09/17 04:49:17;;;;;;;8.80;7.33;;;;;;;13.58;92.30;99354.23;1775256;78;20998;-82
2022/09/17 04:51:44;;;;;;;8.28;6.75;;;;;;;13.55;91.91;99347.19;1760600;79;20985;-93
2022/09/17 04:54:14;;;;;;;10.40;6.72;;;;;;;13.52;91.87;99343.09;1699446;79;89288;-77
2022/09/17 04:56:40;;;;;;;15.00;8.48;;;;;;;13.52;91.89;99346.30;1684257;83;20970;-75
2022/09/17 04:59:06;;;;;;;7.92;7.17;;;;;;;13.53;91.75;99340.72;1684886;83;21081;-78
2022/09/17 05:01:33;;;;;;;8.00;7.30;;;;;;;13.56;91.44;99330.89;1706653;82;20997;-77
2022/09/17 05:03:59;;;;;;;7.67;6.83;;;;;;;13.56;91.02;99332.23;1718138;82;21018;-78
2022/09/17 05:06:25;;;;;;;;;;;;;;;13.58;90.88;99334.65;1725850;82;21057;-79
2022/09/17 05:08:51;;;;;;;8.20;7.40;;;;;;;13.59;90.73;99338.97;1712042;82;20183;-75
2022/09/17 05:11:18;;;;;;;8.53;7.62;;;;;;;13.61;91.08;99348.92;1680623;84;21056;-77
2022/09/17 05:13:45;;;;;;;8.60;7.50;;;;;;;13.60;90.97;99344.63;1676836;84;20981;-77
2022/09/17 05:16:11;;;;;;;7.92;7.17;;;;;;;13.74;91.01;99355.92;1674089;84;21262;-76
2022/09/17 05:18:37;;;;;;;9.13;8.15;;;;;;;13.80;90.79;99350.95;1667180;84;21545;-74
2022/09/17 05:21:03;;;;;;;12.20;7.47;;;;;;;13.89;90.84;99350.09;1675049;84;20997;-76
2022/09/17 05:23:29;;;;;;;9.73;8.10;;;;;;;13.93;90.61;99353.93;1674244;84;20975;-76
2022/09/17 05:26:00;;;;;;;9.55;8.48;;;;;;;13.98;90.66;99355.39;1671252;84;21034;-76
2022/09/17 05:28:27;;;;;;;10.35;7.55;;;;;;;14.06;90.68;99351.53;1673398;84;20992;-73
2022/09/17 05:30:53;;;;;;;8.08;7.33;;;;;;;14.11;90.55;99356.48;1685205;84;21024;-70
2022/09/17 05:33:19;;;;;;;8.70;7.47;;;;;;;14.18;90.00;99357.17;1680525;83;20957;-79
2022/09/17 05:35:46;;;;;;;8.25;6.25;;;;;;;14.23;89.47;99350.28;1670500;84;21461;-68
2022/09/17 05:38:12;;;;;;;6.05;5.55;;;;;;;14.28;89.13;99356.56;1679792;84;21607;-69
2022/09/17 05:40:39;;;;;;;6.90;6.20;;;;;;;14.31;88.58;99356.60;1680311;84;20913;-69
2022/09/17 05:43:06;;;;;;;11.22;6.95;;;;;;;14.34;88.17;99366.33;1674432;84;21088;-68
2022/09/17 05:45:34;;;;;;;7.20;6.53;;;;;;;14.36;87.86;99354.03;1681954;84;21558;-67
2022/09/17 05:48:02;;;;;;;6.87;6.20;;;;;;;14.38;87.94;99351.93;1689259;84;21500;-67
2022/09/17 05:50:30;;;;;;;9.63;6.92;;;;;;;14.42;87.72;99342.36;1681158;84;22124;-68
2022/09/17 05:52:56;;;;;;;10.18;6.47;;;;;;;14.48;86.80;99340.59;1679819;84;21532;-69
2022/09/17 05:55:23;;;;;;;10.05;6.78;;;;;;;14.25;86.37;99301.27;1669405;84;21111;-69
2022/09/17 05:57:51;;;;;;;;;;;;;;;14.52;86.15;99348.44;1674576;84;21063;-67
2022/09/17 06:00:18;;;;;;;8.33;5.12;;;;;;;14.51;85.88;99354.87;1676552;84;20440;-68
2022/09/17 06:02:44;;;;;;;9.15;6.08;;;;;;;14.48;85.72;99359.36;1673701;84;21092;-69
2022/09/17 06:05:11;;;;;;;5.78;5.28;;;;;;;14.52;85.01;99357.83;1671821;83;20992;-69
2022/09/17 06:07:38;;;;;;;6.37;5.75;;;;;;;14.52;84.36;99362.68;1666656;84;21109;-69
2022/09/17 06:10:07;;;;;;;6.12;5.30;;;;;;;14.57;84.35;99368.69;1671274;84;21466;-70
2022/09/17 06:12:36;;;;;;;6.10;5.50;;;;;;;14.59;84.16;99366.58;1665859;84;20945;-68
2022/09/17 06:15:04;;;;;;;9.05;5.58;;;;;;;14.63;84.15;99366.92;1665403;84;21020;-68
2022/09/17 06:17:34;;;;;;;7.28;5.65;;;;;;;14.66;83.69;99363.77;1674398;84;21067;-69
2022/09/17 06:20:00;;;;;;;6.58;5.97;;;;;;;14.71;83.60;99370.05;1664153;84;21184;-69
2022/09/17 06:22:27;;;;;;;8.65;5.60;;;;;;;14.75;83.53;99363.15;1665675;82;20967;-68
2022/09/17 06:24:53;;;;;;;;;;;;;;;14.81;83.99;99363.25;1675368;84;21533;-69
2022/09/17 06:27:19;;;;;;;8.35;5.40;;;;;;;14.83;82.48;99360.61;1674330;84;20110;-68
2022/09/17 06:29:45;;;;;;;5.92;5.30;;;;;;;14.78;82.32;99352.45;1666852;82;21028;-67
2022/09/17 06:32:11;;;;;;;13.43;5.72;;;;;;;14.80;82.27;99342.30;1665044;84;21516;-68
2022/09/17 06:34:38;;;;;;;9.30;6.50;;;;;;;14.84;82.40;99345.31;1667376;84;21027;-67
2022/09/17 06:37:05;;;;;;;7.05;6.35;;;;;;;14.85;81.81;99350.45;1663344;82;21059;-72
2022/09/17 06:39:31;;;;;;;9.33;6.87;;;;;;;14.88;81.79;99355.84;1672751;84;21135;-68
2022/09/17 06:41:58;;;;;;;6.42;5.62;;;;;;;14.90;81.25;99361.78;1687127;84;21035;-69
2022/09/17 06:44:26;;;;;;;10.85;5.83;;;;;;;14.93;81.47;99362.66;1676329;83;21523;-68
2022/09/17 06:48:56;;;;;;;8.48;4.70;;;;;;;14.99;80.40;99360.34;1792773;77;22889;-68
2022/09/17 06:51:22;;;;;;;5.37;4.87;;;;;;;14.95;80.19;99357.86;1721324;82;21026;-68
2022/09/17 06:53:48;;;;;;;;;;;;;;;14.96;79.46;99362.99;1734656;81;21017;-67
2022/09/17 06:56:14;;;;;;;7.25;5.22;;;;;;;14.96;79.61;99361.65;1727157;81;20113;-67
2022/09/17 06:58:41;;;;;;;6.72;6.00;;;;;;;14.91;79.79;99363.42;1729459;83;21009;-67
2022/09/17 07:01:09;;;;;;;11.85;5.72;;;;;;;14.90;79.90;99364.47;1708958;83;21334;-67
2022/09/17 07:03:36;;;;;;;6.47;5.87;;;;;;;14.89;79.47;99369.03;1650913;86;21084;-68
2022/09/17 07:06:09;;;;;;;11.83;7.80;;;;;;;14.92;79.89;99368.56;1710560;82;21473;-70
2022/09/17 07:08:36;;;;;;;12.13;7.33;;;;;;;14.95;80.22;99365.38;1679013;84;21014;-67
2022/09/17 07:11:02;;;;;;;12.53;7.33;;;;;;;14.96;79.92;99367.55;1667652;84;21109;-69
2022/09/17 07:13:29;;;;;;;7.65;6.80;;;;;;;14.96;80.23;99367.02;1698793;84;21025;-73
2022/09/17 07:15:59;;;;;;;11.57;7.65;;;;;;;14.95;80.57;99372.08;1691124;84;21499;-69
2022/09/17 07:18:26;;;;;;;8.03;7.25;;;;;;;14.94;79.91;99374.49;1688268;84;21006;-68
2022/09/17 07:20:59;;;;;;;7.03;6.30;;;;;;;14.94;79.72;99369.13;1671324;85;21064;-67
2022/09/17 07:23:29;;;;;;;6.80;6.08;;;;;;;14.96;80.08;99375.06;1657178;86;21053;-67
2022/09/17 07:25:59;;;;;;;10.90;7.17;;;;;;;14.96;79.39;99375.06;1679008;84;21068;-69
2022/09/17 07:28:26;;;;;;;7.78;7.00;;;;;;;14.95;79.11;99367.25;1681436;84;21496;-68
2022/09/17 07:30:53;;;;;;;9.40;6.60;;;;;;;14.94;79.07;99365.11;1660138;85;21041;-71
2022/09/17 07:33:24;;;;;;;11.08;6.83;;;;;;;14.91;78.93;99358.06;1659723;85;21011;-69
2022/09/17 07:36:01;;;;;;;6.25;5.65;;;;;;;14.89;79.01;99370.38;1659450;85;21083;-75
2022/09/17 07:38:29;;;;;;;8.45;6.17;;;;;;;14.91;78.85;99372.81;1673544;83;21089;-69
2022/09/17 07:41:16;;;;;;;6.92;6.22;;;;;;;14.91;78.82;99367.45;1686801;83;21068;-69
2022/09/17 07:43:44;;;;;;;8.83;5.40;;;;;;;14.92;79.03;99364.53;1707791;82;22247;-71
2022/09/17 07:46:18;;;;;;;12.95;6.05;;;;;;;14.95;79.05;99370.74;1686907;83;20988;-71
2022/09/17 07:48:46;;;;;;;6.65;5.28;;;;;;;15.00;78.93;99372.72;1675722;84;21452;-69
2022/09/17 07:51:20;;;;;;;14.38;6.25;;;;;;;15.03;78.77;99366.88;1694641;83;21124;-72
2022/09/17 07:53:49;;;;;;;10.08;6.17;;;;;;;15.06;78.54;99365.03;1701667;82;22162;-68
2022/09/17 07:56:15;;;;;;;8.83;5.70;;;;;;;15.09;78.52;99363.23;1715121;82;21536;-69
2022/09/17 07:58:41;;;;;;;11.33;5.50;;;;;;;15.14;78.53;99361.98;1722179;82;21032;-67
2022/09/17 08:01:10;;;;;;;6.53;5.90;;;;;;;15.21;77.84;99362.34;1706987;82;21009;-72
2022/09/17 08:03:38;;;;;;;10.18;4.92;;;;;;;15.27;77.68;99359.48;1714256;82;21002;-69
2022/09/17 08:06:09;;;;;;;7.55;5.22;;;;;;;15.33;77.35;99361.73;1719540;82;21057;-68
2022/09/17 08:08:37;;;;;;;5.83;5.30;;;;;;;15.42;77.32;99355.44;1704761;82;21087;-68
2022/09/17 08:11:08;;;;;;;7.22;4.60;;;;;;;15.52;77.51;99361.79;1680857;84;21024;-71
2022/09/17 08:13:34;;;;;;;9.38;5.62;;;;;;;15.60;78.04;99360.56;1684641;83;21015;-70
2022/09/17 08:16:12;;;;;;;8.68;4.97;;;;;;;15.66;77.92;99364.95;1697834;82;21541;-71
2022/09/17 08:18:39;;;;;;;5.60;4.95;;;;;;;15.74;77.61;99367.78;1666376;84;21495;-69
2022/09/17 08:21:07;;;;;;;5.65;5.15;;;;;;;15.83;75.61;99368.99;1684077;83;21537;-70
2022/09/17 08:23:36;;;;;;;13.50;5.33;;;;;;;15.83;75.61;99368.99;1685514;83;21656;-68
2022/09/17 08:26:05;;;;;;;6.80;5.20;;;;;;;15.81;74.80;99367.63;1686181;83;21062;-69
2022/09/17 08:28:31;;;;;;;5.67;5.15;;;;;;;15.76;75.38;99365.15;1690713;84;21021;-68
2022/09/17 08:31:07;;;;;;;7.05;6.40;;;;;;;15.74;75.92;99368.58;1692140;84;21154;-69
2022/09/17 08:33:37;;;;;;;6.90;6.30;;;;;;;15.73;76.22;99362.95;1693929;83;21090;-71
2022/09/17 08:36:05;;;;;;;9.85;5.85;;;;;;;15.73;76.60;99371.52;1697445;83;21537;-68
2022/09/17 08:38:36;;;;;;;14.75;6.42;;;;;;;15.68;77.14;99371.42;1693771;83;21013;-70
2022/09/17 08:41:13;;;;;;;4.50;4.00;;;;;;;15.58;76.86;99373.43;1699150;83;21112;-70
2022/09/17 08:44:06;;;;;;;5.12;4.60;;;;;;;15.52;77.43;99381.09;1686883;83;21039;-71
2022/09/17 08:46:38;;;;;;;3.72;3.52;;;;;;;15.49;77.79;99380.27;1676592;83;21078;-69
2022/09/17 08:49:28;;;;;;;4.70;4.22;;;;;;;15.48;76.98;99374.59;1670241;83;21039;-71
2022/09/17 08:52:28;;;;;;;4.70;4.33;;;;;;;15.44;76.91;99372.12;1675468;83;21057;-68
2022/09/17 08:55:25;;;;;;;4.67;4.35;;;;;;;15.42;77.63;99371.02;1672635;84;21399;-68
2022/09/17 08:58:26;;;;;;;4.70;3.98;;;;;;;15.38;77.47;99366.66;1674468;84;21133;-68
2022/09/17 09:01:04;;;;;;;5.00;4.47;;;;;;;15.37;77.73;99365.04;1650996;85;21042;-70
2022/09/17 09:04:01;;;;;;;4.47;4.08;;;;;;;15.36;77.02;99361.25;1646413;85;21107;-73
2022/09/17 09:06:34;;;;;;;3.90;3.50;;;;;;;15.34;77.11;99354.78;1643147;85;21069;-69
2022/09/17 09:09:04;;;;;;;4.30;3.98;;;;;;;15.31;77.73;99363.84;1675168;84;21496;-69
2022/09/17 09:11:31;;;;;;;4.58;3.47;;;;;;;15.30;78.47;99371.09;1700217;83;21081;-71
2022/09/17 09:14:20;;;;;;;3.98;3.67;;;;;;;15.28;78.25;99374.55;1690537;84;21009;-69
2022/09/17 09:16:47;;;;;;;4.25;3.85;;;;;;;15.28;78.75;99369.18;1687908;84;21039;-70
2022/09/17 09:19:28;;;;;;;4.15;3.85;;;;;;;15.28;79.21;99370.52;1660592;85;21604;-69
2022/09/17 09:22:08;;;;;;;5.10;3.67;;;;;;;15.30;79.47;99370.29;1697110;83;21126;-71
2022/09/17 09:24:44;;;;;;;3.85;3.50;;;;;;;15.29;79.61;99361.39;1694689;83;21503;-68
2022/09/17 09:27:17;;;;;;;;;;;;;;;15.29;79.41;99352.00;1684441;84;21084;-72
2022/09/17 09:30:06;;;;;;;4.85;3.92;;;;;;;15.26;79.27;99363.25;1646048;85;20466;-68
2022/09/17 09:33:11;;;;;;;3.60;3.30;;;;;;;15.20;79.30;99358.86;1663443;84;21053;-68
2022/09/17 09:35:43;;;;;;;3.92;3.20;;;;;;;15.26;79.31;99364.59;1677879;84;21136;-68
2022/09/17 09:38:39;;;;;;;4.28;3.87;;;;;;;15.32;78.86;99361.46;1658569;85;21077;-69
2022/09/17 09:41:17;;;;;;;5.10;3.40;;;;;;;15.36;78.59;99369.30;1654096;85;21042;-71
2022/09/17 09:43:54;;;;;;;3.70;3.12;;;;;;;15.40;78.31;99373.66;1660650;85;21045;-70
2022/09/17 09:46:49;;;;;;;3.30;3.00;;;;;;;15.43;78.44;99378.56;1657478;85;21044;-68
2022/09/17 09:49:49;;;;;;;9.18;4.70;;;;;;;15.47;78.27;99375.13;1617358;87;21044;-69
2022/09/17 09:52:52;;;;;;;5.47;4.53;;;;;;;15.47;77.45;99371.64;1635224;86;20989;-71
2022/09/17 09:55:52;;;;;;;6.97;4.47;;;;;;;15.45;76.84;99369.73;1664749;85;20937;-71
2022/09/17 09:58:30;;;;;;;3.35;3.15;;;;;;;15.45;77.91;99367.05;1607521;88;21592;-71
2022/09/17 10:00:57;;;;;;;5.67;3.90;;;;;;;15.48;77.24;99378.11;1628630;86;21046;-72
2022/09/17 10:03:32;;;;;;;5.95;3.85;;;;;;;15.49;77.42;99380.27;1627849;86;21008;-70
2022/09/17 10:06:07;;;;;;;4.42;4.08;;;;;;;15.52;78.08;99382.44;1664751;84;21013;-69
2022/09/17 10:08:39;;;;;;;5.60;4.95;;;;;;;15.56;78.36;99390.32;1675987;84;21746;-69
2022/09/17 10:11:18;;;;;;;6.00;4.55;;;;;;;15.58;78.17;99384.17;1682573;84;21028;-70
2022/09/17 10:13:45;;;;;;;4.10;3.70;;;;;;;15.60;78.43;99384.73;1644061;84;21969;-69
2022/09/17 10:16:23;;;;;;;3.60;3.40;;;;;;;15.61;78.13;99375.61;1628547;85;21057;-66
2022/09/17 10:19:04;;;;;;;6.37;3.85;;;;;;;15.64;78.51;99377.81;1680718;84;21116;-69
2022/09/17 10:21:35;;;;;;;4.12;3.67;;;;;;;15.67;78.67;99372.47;1679932;84;21028;-70
2022/09/17 10:24:06;;;;;;;4.80;4.35;;;;;;;15.68;78.20;99377.60;1668829;85;21128;-68
2022/09/17 10:26:36;;;;;;;4.12;3.85;;;;;;;15.70;78.72;99387.57;1668499;85;21052;-68
2022/09/17 10:29:11;;;;;;;3.55;3.25;;;;;;;15.45;78.79;99330.80;1650192;85;21032;-67
2022/09/17 10:31:53;;;;;;;5.95;3.95;;;;;;;15.85;78.85;99375.47;1655652;85;21191;-68
2022/09/17 10:34:31;;;;;;;3.98;3.60;;;;;;;15.93;78.92;99366.98;1684036;83;21662;-69
2022/09/17 10:36:57;;;;;;;5.70;4.22;;;;;;;16.03;78.96;99369.82;1688376;83;20997;-68
2022/09/17 10:39:35;;;;;;;3.85;3.20;;;;;;;16.09;77.98;99376.08;1709782;82;21113;-67
2022/09/17 10:42:14;;;;;;;4.65;3.67;;;;;;;16.11;78.07;99370.73;1686092;84;21068;-68
2022/09/17 10:44:59;;;;;;;3.45;3.15;;;;;;;16.12;77.38;99362.96;1658519;84;21111;-68
2022/09/17 10:47:34;;;;;;;4.08;3.40;;;;;;;16.11;77.50;99371.27;1738506;81;21025;-70
2022/09/17 10:50:09;;;;;;;3.58;3.35;;;;;;;16.11;77.81;99377.45;1713273;82;21025;-70
2022/09/17 10:52:41;;;;;;;4.65;4.15;;;;;;;16.14;77.40;99373.44;1711329;82;21048;-67
2022/09/17 10:55:18;;;;;;;4.08;3.77;;;;;;;16.17;77.30;99377.53;1692788;82;21508;-72
2022/09/17 10:58:08;;;;;;;4.42;3.72;;;;;;;16.20;77.40;99373.81;1710834;82;21038;-68
2022/09/17 11:00:44;;;;;;;4.05;3.40;;;;;;;16.26;77.34;99374.69;1710052;82;20992;-69
2022/09/17 11:03:54;;;;;;;5.67;4.25;;;;;;;16.18;77.45;99349.56;1711707;82;21042;-67
2022/09/17 11:06:43;;;;;;;4.65;3.45;;;;;;;16.37;77.51;99379.14;1684895;82;21595;-68
2022/09/17 11:09:38;;;;;;;5.53;4.75;;;;;;;16.45;77.44;99381.38;1711986;82;21060;-76
2022/09/17 11:12:41;;;;;;;5.28;4.05;;;;;;;16.53;77.97;99366.67;1663369;84;21571;-74
2022/09/17 11:15:42;;;;;;;4.42;4.03;;;;;;;16.58;78.15;99356.52;1680999;84;21498;-75
2022/09/17 11:18:44;;;;;;;3.95;3.72;;;;;;;16.59;79.37;99358.94;1736753;81;20984;-73
2022/09/17 11:21:34;;;;;;;4.42;4.08;;;;;;;16.54;78.77;99358.36;1736821;81;21510;-71
2022/09/17 11:24:21;;;;;;;4.55;4.15;;;;;;;16.43;78.86;99354.47;1737047;81;21138;-74
2022/09/17 11:27:17;;;;;;;5.78;4.67;;;;;;;16.33;79.01;99363.20;1738590;81;21124;-77
2022/09/17 11:30:04;;;;;;;6.62;4.00;;;;;;;16.24;79.40;99353.97;1713208;83;21017;-72
2022/09/17 11:32:51;;;;;;;4.70;4.40;;;;;;;16.20;80.82;99356.34;1710718;82;20997;-72
2022/09/17 11:35:37;;;;;;;5.12;4.22;;;;;;;16.24;80.85;99348.05;1704759;83;21243;-71
2022/09/17 11:38:11;;;;;;;4.70;4.30;;;;;;;16.27;80.15;99348.88;1674731;84;21001;-69
2022/09/17 11:40:58;;;;;;;6.35;5.08;;;;;;;16.31;80.53;99347.34;1727663;81;21079;-70
2022/09/17 11:43:34;;;;;;;4.30;4.00;;;;;;;16.36;80.82;99338.50;1711091;82;21074;-70
2022/09/17 11:46:20;;;;;;;4.78;4.33;;;;;;;16.40;80.92;99339.63;1674083;84;21071;-69
2022/09/17 11:48:58;;;;;;;4.42;4.03;;;;;;;16.42;80.90;99326.73;1709188;82;21601;-70
2022/09/17 11:51:32;;;;;;;7.92;5.00;;;;;;;16.44;81.14;99316.53;1707400;82;21090;-70
2022/09/17 11:54:30;;;;;;;5.00;4.60;;;;;;;16.45;80.33;99302.58;1721914;82;20970;-70
2022/09/17 11:57:17;;;;;;;5.70;5.03;;;;;;;16.48;80.09;99300.20;1697187;82;21584;-69
2022/09/17 11:59:55;;;;;;;7.42;6.17;;;;;;;16.53;80.34;99302.92;1725655;82;21072;-72
2022/09/17 12:02:46;;;;;;;6.87;5.22;;;;;;;16.61;79.36;99313.77;1727092;82;21012;-79
2022/09/17 12:05:23;;;;;;;4.72;4.30;;;;;;;16.61;79.36;99313.77;1692180;82;21040;-76
2022/09/17 12:08:10;;;;;;;4.30;3.90;;;;;;;16.62;78.42;99315.94;1705032;82;21119;-73
2022/09/17 12:11:07;;;;;;;5.55;5.03;;;;;;;16.57;78.13;99304.58;1718492;82;21655;-76